createdAt,value
2023-01-30T00:01:12.826Z,99519.34
2023-01-30T00:03:39.378Z,99517.97
2023-01-30T00:06:05.977Z,99513.00
2023-01-30T00:08:32.474Z,99500.66
2023-01-30T00:11:04.332Z,99519.22
2023-01-30T00:13:30.829Z,99523.31
2023-01-30T00:15:57.477Z,99507.06
2023-01-30T00:18:24.126Z,99511.13
2023-01-30T00:20:59.264Z,99505.84
2023-01-30T00:23:27.116Z,99501.97
2023-01-30T00:25:53.819Z,99501.66
2023-01-30T00:28:20.692Z,99494.16
2023-01-30T00:30:51.722Z,99488.66
2023-01-30T00:33:19.230Z,99483.97
2023-01-30T00:35:47.438Z,99481.22
2023-01-30T00:38:14.681Z,99462.69
2023-01-30T00:40:41.532Z,99459.66
2023-01-30T00:43:27.835Z,99456.19
2023-01-30T00:46:13.740Z,99454.16
2023-01-30T00:48:40.247Z,99450.94
2023-01-30T00:51:06.699Z,99454.50
2023-01-30T00:53:33.262Z,99446.66
2023-01-30T00:55:59.776Z,99450.63
2023-01-30T00:58:26.523Z,99454.94
2023-01-30T01:00:53.370Z,99449.88
2023-01-30T01:03:20.242Z,99445.97
2023-01-30T01:05:47.040Z,99448.47
2023-01-30T01:08:13.604Z,99445.88
2023-01-30T01:10:40.197Z,99448.59
2023-01-30T01:13:07.064Z,99448.69
2023-01-30T01:15:34.026Z,99442.56
2023-01-30T01:18:00.603Z,99430.88
2023-01-30T01:20:27.119Z,99433.41
2023-01-30T01:22:56.012Z,99423.22
2023-01-30T01:25:23.946Z,99411.44
2023-01-30T01:27:50.879Z,99411.59
2023-01-30T01:30:17.802Z,99406.34
2023-01-30T01:32:45.065Z,99405.34
2023-01-30T01:35:11.896Z,99413.94
2023-01-30T01:37:38.467Z,99412.88
2023-01-30T01:40:24.532Z,99404.75
2023-01-30T01:42:51.139Z,99412.31
2023-01-30T01:45:22.113Z,99422.59
2023-01-30T01:48:03.399Z,99426.81
2023-01-30T01:50:41.225Z,99433.47
2023-01-30T01:53:10.408Z,99437.56
2023-01-30T01:55:38.703Z,99449.78
2023-01-30T01:58:11.948Z,99443.47
2023-01-30T02:00:38.736Z,99460.06
2023-01-30T02:03:15.108Z,99456.59
2023-01-30T02:05:46.649Z,99468.91
2023-01-30T02:08:26.345Z,99464.78
2023-01-30T02:11:01.605Z,99470.69
2023-01-30T02:13:28.504Z,99488.88
2023-01-30T02:16:00.871Z,99500.00
2023-01-30T02:18:29.039Z,99513.84
2023-01-30T02:21:13.941Z,99525.94
2023-01-30T02:24:18.142Z,99539.13
2023-01-30T02:26:53.322Z,99545.66
2023-01-30T02:29:50.252Z,99553.88
2023-01-30T02:33:00.648Z,99543.97
2023-01-30T02:35:35.852Z,99542.16
2023-01-30T02:38:02.290Z,99531.91
2023-01-30T02:41:00.249Z,99528.84
2023-01-30T02:43:58.463Z,99544.50
2023-01-30T02:46:32.312Z,99516.28
2023-01-30T02:49:33.237Z,99517.41
2023-01-30T02:52:02.397Z,99548.66
2023-01-30T02:54:28.921Z,99542.41
2023-01-30T02:56:58.683Z,99534.88
2023-01-30T02:59:30.741Z,99544.19
2023-01-30T03:02:29.602Z,99535.16
2023-01-30T03:05:26.483Z,99526.84
2023-01-30T03:08:10.668Z,99527.13
2023-01-30T03:10:47.636Z,99518.47
2023-01-30T03:13:40.443Z,99511.25
2023-01-30T03:16:12.682Z,99516.81
2023-01-30T03:18:43.586Z,99529.31
2023-01-30T03:21:11.317Z,99508.72
2023-01-30T03:23:37.920Z,99513.53
2023-01-30T03:26:08.259Z,99521.63
2023-01-30T03:28:35.555Z,99537.31
2023-01-30T03:31:02.138Z,99536.44
2023-01-30T03:33:28.704Z,99529.34
2023-01-30T03:35:55.401Z,99531.38
2023-01-30T03:38:21.987Z,99534.44
2023-01-30T03:40:48.543Z,99499.06
2023-01-30T03:43:15.003Z,99496.28
2023-01-30T03:45:41.487Z,99497.50
2023-01-30T03:48:07.971Z,99501.78
2023-01-30T03:50:35.437Z,99503.47
2023-01-30T03:53:01.981Z,99504.69
2023-01-30T03:55:28.459Z,99479.47
2023-01-30T03:57:58.328Z,99489.66
2023-01-30T04:00:24.816Z,99498.84
2023-01-30T04:02:52.071Z,99485.34
2023-01-30T04:05:19.040Z,99481.56
2023-01-30T04:07:45.779Z,99471.00
2023-01-30T04:10:15.439Z,99482.56
2023-01-30T04:12:42.875Z,99473.66
2023-01-30T04:15:10.285Z,99483.25
2023-01-30T04:17:36.744Z,99478.50
2023-01-30T04:20:03.883Z,99465.06
2023-01-30T04:22:30.633Z,99451.84
2023-01-30T04:24:57.109Z,99434.19
2023-01-30T04:27:23.601Z,99437.13
2023-01-30T04:29:50.091Z,99423.91
2023-01-30T04:32:16.536Z,99422.78
2023-01-30T04:34:45.111Z,99434.47
2023-01-30T04:37:12.520Z,99420.19
2023-01-30T04:39:39.086Z,99423.31
2023-01-30T04:42:05.683Z,99429.19
2023-01-30T04:44:32.195Z,99440.28
2023-01-30T04:46:58.695Z,99459.97
2023-01-30T04:49:25.254Z,99473.91
2023-01-30T04:51:51.887Z,99461.00
2023-01-30T04:54:18.431Z,99441.31
2023-01-30T04:56:44.916Z,99439.47
2023-01-30T04:59:11.431Z,99447.06
2023-01-30T05:01:39.194Z,99454.31
2023-01-30T05:04:06.768Z,99443.91
2023-01-30T05:06:34.300Z,99439.75
2023-01-30T05:09:00.989Z,99443.75
2023-01-30T05:11:28.642Z,99431.34
2023-01-30T05:13:55.853Z,99423.22
2023-01-30T05:16:23.495Z,99437.09
2023-01-30T05:18:50.817Z,99447.19
2023-01-30T05:21:19.746Z,99449.50
2023-01-30T05:23:46.667Z,99462.16
2023-01-30T05:26:14.730Z,99461.28
2023-01-30T05:28:42.895Z,99455.53
2023-01-30T05:31:12.854Z,99467.22
2023-01-30T05:33:40.455Z,99464.31
2023-01-30T05:36:08.095Z,99466.75
2023-01-30T05:38:34.672Z,99463.53
2023-01-30T05:41:06.616Z,99459.63
2023-01-30T05:43:34.572Z,99464.91
2023-01-30T05:46:04.670Z,99461.91
2023-01-30T05:48:32.421Z,99471.63
2023-01-30T05:51:00.126Z,99471.56
2023-01-30T05:53:32.271Z,99469.72
2023-01-30T05:56:01.221Z,99462.13
2023-01-30T05:58:28.519Z,99447.94
2023-01-30T06:00:59.565Z,99462.50
2023-01-30T06:03:26.123Z,99465.34
2023-01-30T06:05:52.620Z,99454.81
2023-01-30T06:08:19.085Z,99457.88
2023-01-30T06:10:45.543Z,99457.59
2023-01-30T06:13:12.058Z,99460.25
2023-01-30T06:15:38.750Z,99443.97
2023-01-30T06:18:05.381Z,99451.75
2023-01-30T06:20:31.958Z,99466.06
2023-01-30T06:22:58.504Z,99473.91
2023-01-30T06:25:25.035Z,99464.47
2023-01-30T06:27:51.543Z,99452.75
2023-01-30T06:30:18.298Z,99459.28
2023-01-30T06:32:44.751Z,99465.78
2023-01-30T06:35:11.198Z,99492.59
2023-01-30T06:37:37.699Z,99507.72
2023-01-30T06:40:04.596Z,99499.50
2023-01-30T06:42:31.045Z,99506.72
2023-01-30T06:44:57.493Z,99519.34
2023-01-30T06:47:23.958Z,99524.03
2023-01-30T06:49:50.423Z,99520.41
2023-01-30T06:52:16.911Z,99524.28
2023-01-30T06:54:43.435Z,99535.38
2023-01-30T06:57:09.950Z,99527.72
2023-01-30T06:59:36.436Z,99537.84
2023-01-30T07:02:02.969Z,99543.94
2023-01-30T07:04:29.469Z,99543.41
2023-01-30T07:06:55.973Z,99543.53
2023-01-30T07:09:22.499Z,99545.19
2023-01-30T07:11:50.368Z,99531.97
2023-01-30T07:14:16.883Z,99536.84
2023-01-30T07:16:43.423Z,99536.00
2023-01-30T07:19:10.006Z,99540.00
2023-01-30T07:21:36.526Z,99541.94
2023-01-30T07:24:02.987Z,99543.66
2023-01-30T07:26:31.325Z,99535.59
2023-01-30T07:28:57.870Z,99525.34
2023-01-30T07:31:24.436Z,99520.25
2023-01-30T07:33:50.958Z,99519.94
2023-01-30T07:36:17.465Z,99505.78
2023-01-30T07:38:43.941Z,99493.22
2023-01-30T07:41:10.487Z,99480.94
2023-01-30T07:43:36.934Z,99474.50
2023-01-30T07:46:04.029Z,99482.72
2023-01-30T07:48:30.496Z,99489.91
2023-01-30T07:50:57.672Z,99492.63
2023-01-30T07:53:24.253Z,99482.88
2023-01-30T07:55:50.859Z,99475.38
2023-01-30T07:58:17.763Z,99477.41
2023-01-30T08:00:45.128Z,99465.31
2023-01-30T08:03:16.161Z,99478.22
2023-01-30T08:05:44.266Z,99477.59
2023-01-30T08:08:10.990Z,99479.72
2023-01-30T08:10:37.499Z,99491.41
2023-01-30T08:13:03.960Z,99488.84
2023-01-30T08:15:31.856Z,99502.59
2023-01-30T08:17:58.562Z,99509.81
2023-01-30T08:20:27.247Z,99519.91
2023-01-30T08:22:54.245Z,99524.50
2023-01-30T08:25:21.781Z,99512.19
2023-01-30T08:27:48.351Z,99516.47
2023-01-30T08:30:15.059Z,99518.41
2023-01-30T08:32:41.609Z,99519.75
2023-01-30T08:35:09.195Z,99518.56
2023-01-30T08:37:35.796Z,99527.69
2023-01-30T08:40:04.532Z,99530.56
2023-01-30T08:42:31.142Z,99525.75
2023-01-30T08:44:57.685Z,99516.53
2023-01-30T08:47:24.175Z,99513.44
2023-01-30T08:49:52.745Z,99509.09
2023-01-30T08:52:20.384Z,99506.03
2023-01-30T08:54:47.365Z,99512.41
2023-01-30T08:57:14.913Z,99506.63
2023-01-30T08:59:41.521Z,99505.00
2023-01-30T09:02:11.690Z,99514.59
2023-01-30T09:04:38.269Z,99515.28
2023-01-30T09:07:04.901Z,99528.00
2023-01-30T09:09:31.461Z,99555.59
2023-01-30T09:11:57.983Z,99537.75
2023-01-30T09:14:24.529Z,99548.69
2023-01-30T09:16:55.775Z,99546.78
2023-01-30T09:19:23.926Z,99549.31
2023-01-30T09:21:51.720Z,99551.31
2023-01-30T09:24:18.729Z,99548.06
2023-01-30T09:26:45.440Z,99554.63
2023-01-30T09:29:12.833Z,99560.69
2023-01-30T09:31:39.729Z,99563.19
2023-01-30T09:34:06.720Z,99569.28
2023-01-30T09:36:33.568Z,99573.69
2023-01-30T09:39:00.267Z,99571.53
2023-01-30T09:41:35.430Z,99575.16
2023-01-30T09:44:35.231Z,99576.56
2023-01-30T09:47:09.643Z,99579.59
2023-01-30T09:49:43.437Z,99579.53
2023-01-30T09:52:25.056Z,99576.03
2023-01-30T09:54:54.007Z,99561.47
2023-01-30T09:57:25.632Z,99550.19
2023-01-30T09:59:52.150Z,99547.69
2023-01-30T10:02:31.905Z,99541.28
2023-01-30T10:05:02.035Z,99533.50
2023-01-30T10:08:15.339Z,99531.47
2023-01-30T10:11:09.621Z,99531.34
2023-01-30T10:14:05.085Z,99529.69
2023-01-30T10:16:50.026Z,99520.50
2023-01-30T10:19:35.723Z,99521.41
2023-01-30T10:22:12.775Z,99508.00
2023-01-30T10:25:04.001Z,99518.00
2023-01-30T10:27:33.144Z,99508.34
2023-01-30T10:30:03.775Z,99508.41
2023-01-30T10:32:41.972Z,99517.59
2023-01-30T10:35:19.380Z,99507.09
2023-01-30T10:38:07.496Z,99503.78
2023-01-30T10:40:46.946Z,99503.81
2023-01-30T10:43:27.741Z,99492.59
2023-01-30T10:45:59.617Z,99476.34
2023-01-30T10:48:48.957Z,99453.06
2023-01-30T10:51:23.645Z,99445.06
2023-01-30T10:53:58.579Z,99448.13
2023-01-30T10:56:47.403Z,99454.59
2023-01-30T10:59:28.744Z,99445.00
2023-01-30T11:02:40.623Z,99440.44
2023-01-30T11:05:15.996Z,99425.03
2023-01-30T11:07:44.016Z,99440.81
2023-01-30T11:10:22.825Z,99443.47
2023-01-30T11:12:55.991Z,99438.00
2023-01-30T11:15:24.861Z,99433.31
2023-01-30T11:18:22.790Z,99408.25
2023-01-30T11:21:03.070Z,99396.84
2023-01-30T11:23:34.931Z,99396.44
2023-01-30T11:26:11.248Z,99383.94
2023-01-30T11:28:44.332Z,99373.41
2023-01-30T11:31:28.314Z,99373.00
2023-01-30T11:34:03.153Z,99383.31
2023-01-30T11:36:32.414Z,99378.53
2023-01-30T11:39:06.254Z,99377.78
2023-01-30T11:41:32.735Z,99365.03
2023-01-30T11:44:05.318Z,99352.53
2023-01-30T11:46:36.890Z,99353.41
2023-01-30T11:49:49.431Z,99345.78
2023-01-30T11:51:57.371Z,99335.91
2023-01-30T11:54:45.207Z,99329.50
2023-01-30T11:57:15.318Z,99320.47
2023-01-30T11:59:45.894Z,99317.19
2023-01-30T12:02:19.616Z,99311.81
2023-01-30T12:04:51.076Z,99300.06
2023-01-30T12:07:25.995Z,99309.31
2023-01-30T12:09:54.191Z,99306.53
2023-01-30T12:12:28.939Z,99302.47
2023-01-30T12:15:05.829Z,99286.53
2023-01-30T12:17:46.565Z,99270.88
2023-01-30T12:20:27.868Z,99263.84
2023-01-30T12:23:11.377Z,99258.72
2023-01-30T12:25:59.627Z,99272.09
2023-01-30T12:28:45.395Z,99275.59
2023-01-30T12:31:32.999Z,99274.13
2023-01-30T12:34:00.351Z,99271.06
2023-01-30T12:36:32.759Z,99277.00
2023-01-30T12:39:14.950Z,99271.25
2023-01-30T12:42:00.518Z,99272.03
2023-01-30T12:44:51.809Z,99272.84
2023-01-30T12:47:22.106Z,99271.00
2023-01-30T12:50:01.278Z,99274.88
2023-01-30T12:52:40.423Z,99271.59
2023-01-30T12:55:09.984Z,99263.13
2023-01-30T12:57:49.065Z,99274.25
2023-01-30T13:00:37.025Z,99271.97
2023-01-30T13:03:21.517Z,99283.50
2023-01-30T13:06:10.676Z,99279.75
2023-01-30T13:08:51.692Z,99283.06
2023-01-30T13:11:39.836Z,99273.53
2023-01-30T13:14:15.525Z,99271.44
2023-01-30T13:16:41.994Z,99276.56
2023-01-30T13:19:20.949Z,99273.94
2023-01-30T13:21:56.277Z,99257.91
2023-01-30T13:24:48.678Z,99262.44
2023-01-30T13:27:19.997Z,99255.47
2023-01-30T13:29:48.901Z,99254.25
2023-01-30T13:32:35.615Z,99257.69
2023-01-30T13:35:06.784Z,99253.34
2023-01-30T13:37:34.281Z,99254.56
2023-01-30T13:40:16.102Z,99240.59
2023-01-30T13:42:50.015Z,99243.81
2023-01-30T13:45:23.727Z,99246.50
2023-01-30T13:47:53.247Z,99246.25
2023-01-30T13:50:28.938Z,99252.41
2023-01-30T13:53:22.684Z,99249.56
2023-01-30T13:55:58.374Z,99255.84
2023-01-30T13:58:43.882Z,99267.34
2023-01-30T14:01:14.339Z,99256.50
2023-01-30T14:03:42.041Z,99259.91
2023-01-30T14:06:10.846Z,99259.56
2023-01-30T14:08:46.419Z,99258.06
2023-01-30T14:11:33.908Z,99276.31
2023-01-30T14:14:04.398Z,99259.47
2023-01-30T14:16:51.926Z,99268.09
2023-01-30T14:19:24.199Z,99264.06
2023-01-30T14:21:58.862Z,99270.00
2023-01-30T14:24:27.494Z,99271.09
2023-01-30T14:27:04.848Z,99266.16
2023-01-30T14:29:37.460Z,99274.34
2023-01-30T14:32:10.062Z,99282.41
2023-01-30T14:34:41.630Z,99274.66
2023-01-30T14:37:39.205Z,99273.66
2023-01-30T14:40:36.031Z,99285.41
2023-01-30T14:43:20.335Z,99285.41
2023-01-30T14:45:51.503Z,99278.91
2023-01-30T14:48:39.815Z,99279.66
2023-01-30T14:51:45.372Z,99279.66
2023-01-30T14:54:11.837Z,99276.53
2023-01-30T14:56:58.587Z,99284.81
2023-01-30T14:59:33.857Z,99290.31
2023-01-30T15:02:21.541Z,99295.56
2023-01-30T15:04:57.677Z,99300.59
2023-01-30T15:07:41.308Z,99300.34
2023-01-30T15:10:23.686Z,99300.91
2023-01-30T15:13:04.535Z,99298.88
2023-01-30T15:15:49.435Z,99317.53
2023-01-30T15:18:27.987Z,99321.41
2023-01-30T15:21:19.593Z,99329.28
2023-01-30T15:24:00.894Z,99335.88
2023-01-30T15:26:56.686Z,99336.78
2023-01-30T15:29:44.503Z,99342.44
2023-01-30T15:32:20.080Z,99348.16
2023-01-30T15:34:58.331Z,99352.16
2023-01-30T15:37:30.983Z,99345.34
2023-01-30T15:40:15.656Z,99348.63
2023-01-30T15:42:51.584Z,99348.00
2023-01-30T15:45:27.989Z,99355.63
2023-01-30T15:48:38.024Z,99359.88
2023-01-30T15:51:05.063Z,99365.84
2023-01-30T15:53:36.042Z,99376.41
2023-01-30T15:56:07.174Z,99376.78
2023-01-30T15:58:38.056Z,99384.66
2023-01-30T16:01:04.905Z,99389.63
2023-01-30T16:03:36.617Z,99379.25
2023-01-30T16:06:03.838Z,99384.75
2023-01-30T16:08:32.879Z,99396.72
2023-01-30T16:11:00.742Z,99394.81
2023-01-30T16:13:29.408Z,99408.38
2023-01-30T16:16:05.076Z,99409.75
2023-01-30T16:18:46.125Z,99421.16
2023-01-30T16:21:28.530Z,99434.84
2023-01-30T16:24:00.897Z,99442.75
2023-01-30T16:26:27.736Z,99442.41
2023-01-30T16:29:02.387Z,99441.75
2023-01-30T16:31:39.202Z,99451.56
2023-01-30T16:34:05.858Z,99450.66
2023-01-30T16:36:39.638Z,99448.53
2023-01-30T16:39:27.745Z,99451.56
2023-01-30T16:41:56.190Z,99456.91
2023-01-30T16:44:23.918Z,99457.31
2023-01-30T16:46:54.771Z,99465.81
2023-01-30T16:49:30.159Z,99463.88
2023-01-30T16:52:05.351Z,99470.28
2023-01-30T16:54:46.149Z,99472.44
2023-01-30T16:57:37.366Z,99481.91
2023-01-30T17:00:10.093Z,99483.09
2023-01-30T17:02:40.031Z,99493.09
2023-01-30T17:05:20.521Z,99494.50
2023-01-30T17:07:48.397Z,99491.06
2023-01-30T17:10:39.578Z,99495.91
2023-01-30T17:13:35.735Z,99494.56
2023-01-30T17:16:27.064Z,99500.25
2023-01-30T17:18:56.022Z,99494.06
2023-01-30T17:21:25.446Z,99507.28
2023-01-30T17:23:59.593Z,99509.59
2023-01-30T17:26:26.150Z,99518.88
2023-01-30T17:28:52.694Z,99523.22
2023-01-30T17:31:20.935Z,99525.53
2023-01-30T17:33:47.660Z,99529.28
2023-01-30T17:36:23.073Z,99527.16
2023-01-30T17:38:50.696Z,99538.84
2023-01-30T17:41:22.946Z,99530.97
2023-01-30T17:43:50.709Z,99530.28
2023-01-30T17:46:18.090Z,99544.06
2023-01-30T17:48:44.744Z,99546.81
2023-01-30T17:51:14.339Z,99548.00
2023-01-30T17:53:41.881Z,99547.75
2023-01-30T17:56:30.044Z,99552.06
2023-01-30T17:58:56.520Z,99542.72
2023-01-30T18:01:23.001Z,99544.88
2023-01-30T18:03:49.548Z,99537.69
2023-01-30T18:06:16.404Z,99553.06
2023-01-30T18:08:42.976Z,99562.81
2023-01-30T18:11:11.847Z,99569.03
2023-01-30T18:13:48.167Z,99570.50
2023-01-30T18:16:19.868Z,99570.16
2023-01-30T18:18:46.711Z,99571.97
2023-01-30T18:21:13.181Z,99587.59
2023-01-30T18:23:39.689Z,99586.78
2023-01-30T18:26:06.275Z,99594.75
2023-01-30T18:28:32.884Z,99587.19
2023-01-30T18:30:59.626Z,99586.50
2023-01-30T18:33:26.237Z,99578.88
2023-01-30T18:35:52.725Z,99585.25
2023-01-30T18:38:19.236Z,99592.22
2023-01-30T18:40:45.854Z,99581.56
2023-01-30T18:43:12.429Z,99599.91
2023-01-30T18:45:38.944Z,99600.19
2023-01-30T18:48:05.675Z,99599.63
2023-01-30T18:50:32.257Z,99600.97
2023-01-30T18:52:58.797Z,99602.44
2023-01-30T18:55:25.690Z,99602.13
2023-01-30T18:57:52.634Z,99604.69
2023-01-30T19:00:21.350Z,99606.66
2023-01-30T19:02:52.885Z,99602.69
2023-01-30T19:05:20.124Z,99601.03
2023-01-30T19:07:46.728Z,99605.78
2023-01-30T19:10:17.345Z,99602.84
2023-01-30T19:13:03.437Z,99603.19
2023-01-30T19:15:30.023Z,99604.84
2023-01-30T19:17:57.201Z,99594.03
2023-01-30T19:20:24.811Z,99597.00
2023-01-30T19:22:51.590Z,99603.34
2023-01-30T19:25:18.140Z,99602.97
2023-01-30T19:27:44.745Z,99603.31
2023-01-30T19:30:11.826Z,99614.44
2023-01-30T19:32:38.320Z,99607.25
2023-01-30T19:35:05.443Z,99618.34
2023-01-30T19:37:31.943Z,99608.94
2023-01-30T19:39:58.519Z,99618.91
2023-01-30T19:42:25.163Z,99619.59
2023-01-30T19:44:51.659Z,99612.31
2023-01-30T19:47:21.692Z,99615.25
2023-01-30T19:49:48.426Z,99612.59
2023-01-30T19:52:14.905Z,99624.72
2023-01-30T19:54:41.390Z,99627.56
2023-01-30T19:57:07.937Z,99629.56
2023-01-30T19:59:38.677Z,99629.91
2023-01-30T20:02:06.758Z,99623.28
2023-01-30T20:04:33.296Z,99618.28
2023-01-30T20:06:59.816Z,99628.28
2023-01-30T20:09:26.362Z,99631.88
2023-01-30T20:11:52.850Z,99623.53
2023-01-30T20:14:19.336Z,99631.97
2023-01-30T20:16:46.314Z,99631.97
2023-01-30T20:19:15.428Z,99637.66
2023-01-30T20:21:42.901Z,99638.00
2023-01-30T20:24:13.704Z,99641.50
2023-01-30T20:26:40.800Z,99635.56
2023-01-30T20:29:09.168Z,99649.16
2023-01-30T20:31:38.257Z,99642.50
2023-01-30T20:34:07.235Z,99644.97
2023-01-30T20:36:34.129Z,99643.81
2023-01-30T20:39:04.069Z,99640.03
2023-01-30T20:41:32.457Z,99648.16
2023-01-30T20:43:59.443Z,99643.13
2023-01-30T20:46:31.562Z,99650.47
2023-01-30T20:49:01.284Z,99650.13
2023-01-30T20:51:30.456Z,99663.91
2023-01-30T20:54:05.609Z,99651.31
2023-01-30T20:56:41.647Z,99663.44
2023-01-30T20:59:08.758Z,99673.06
2023-01-30T21:01:36.171Z,99670.75
2023-01-30T21:04:08.252Z,99671.56
2023-01-30T21:06:42.500Z,99676.19
2023-01-30T21:09:17.742Z,99672.03
2023-01-30T21:11:44.524Z,99673.31
2023-01-30T21:14:12.732Z,99674.81
2023-01-30T21:16:39.545Z,99674.47
2023-01-30T21:19:08.157Z,99678.00
2023-01-30T21:21:41.178Z,99675.97
2023-01-30T21:24:12.178Z,99675.94
2023-01-30T21:26:41.281Z,99666.25
2023-01-30T21:29:08.641Z,99669.38
2023-01-30T21:31:36.134Z,99679.34
2023-01-30T21:34:03.321Z,99680.56
2023-01-30T21:36:29.837Z,99681.19
2023-01-30T21:39:15.198Z,99686.59
2023-01-30T21:41:58.778Z,99680.31
2023-01-30T21:44:27.879Z,99682.63
2023-01-30T21:46:54.873Z,99687.63
2023-01-30T21:49:22.138Z,99682.63
2023-01-30T21:51:49.319Z,99697.72
2023-01-30T21:54:17.599Z,99691.34
2023-01-30T21:56:44.861Z,99691.56
2023-01-30T21:59:12.297Z,99695.72
2023-01-30T22:01:40.088Z,99692.53
2023-01-30T22:04:09.128Z,99695.81
2023-01-30T22:06:37.769Z,99701.50
2023-01-30T22:09:05.921Z,99703.28
2023-01-30T22:11:34.537Z,99704.16
2023-01-30T22:14:01.045Z,99707.63
2023-01-30T22:16:29.214Z,99700.28
2023-01-30T22:19:01.487Z,99707.94
2023-01-30T22:21:32.302Z,99709.06
2023-01-30T22:23:59.254Z,99714.59
2023-01-30T22:26:26.701Z,99720.91
2023-01-30T22:28:55.398Z,99719.22
2023-01-30T22:31:23.393Z,99715.75
2023-01-30T22:33:55.144Z,99719.59
2023-01-30T22:36:27.154Z,99717.94
2023-01-30T22:38:54.341Z,99709.28
2023-01-30T22:41:26.355Z,99724.31
2023-01-30T22:43:55.594Z,99727.59
2023-01-30T22:46:31.530Z,99729.22
2023-01-30T22:48:59.328Z,99732.28
2023-01-30T22:51:31.588Z,99728.59
2023-01-30T22:54:03.636Z,99726.97
2023-01-30T22:56:35.873Z,99726.28
2023-01-30T22:59:02.368Z,99728.69
2023-01-30T23:01:32.062Z,99736.63
2023-01-30T23:04:01.648Z,99739.28
2023-01-30T23:06:30.057Z,99746.97
2023-01-30T23:08:56.605Z,99742.63
2023-01-30T23:11:38.237Z,99735.97
2023-01-30T23:14:11.129Z,99738.28
2023-01-30T23:16:39.625Z,99742.59
2023-01-30T23:19:07.657Z,99741.59
2023-01-30T23:21:39.114Z,99746.28
2023-01-30T23:24:11.938Z,99741.19
2023-01-30T23:26:41.221Z,99739.47
2023-01-30T23:29:10.241Z,99736.47
2023-01-30T23:31:37.430Z,99737.50
2023-01-30T23:34:06.820Z,99724.66
2023-01-30T23:36:34.364Z,99727.34
2023-01-30T23:39:01.200Z,99726.53
2023-01-30T23:41:30.620Z,99714.84
2023-01-30T23:43:58.345Z,99716.34
2023-01-30T23:46:30.999Z,99711.44
2023-01-30T23:48:59.539Z,99713.41
2023-01-30T23:51:29.267Z,99707.31
2023-01-30T23:53:56.415Z,99707.66
2023-01-30T23:56:25.344Z,99708.16
2023-01-30T23:58:51.890Z,99705.81
